sensor_id;sensor_type;location;lat;lon;timestamp;P1;durP1;ratioP1;P2;durP2;ratioP2
6177;SDS011;3122;48.208;11.174;2022-10-26T00:04:40;8.07;;;5.80;;
6177;SDS011;3122;48.208;11.174;2022-10-26T00:09:41;5.80;;;4.63;;
6177;SDS011;3122;48.208;11.174;2022-10-26T00:14:41;7.40;;;4.87;;
6177;SDS011;3122;48.208;11.174;2022-10-26T00:19:42;8.73;;;5.20;;
6177;SDS011;3122;48.208;11.174;2022-10-26T00:24:42;5.77;;;5.00;;
6177;SDS011;3122;48.208;11.174;2022-10-26T00:29:43;5.30;;;4.63;;
6177;SDS011;3122;48.208;11.174;2022-10-26T00:34:43;10.40;;;4.80;;
6177;SDS011;3122;48.208;11.174;2022-10-26T00:39:44;9.10;;;4.63;;
6177;SDS011;3122;48.208;11.174;2022-10-26T00:49:48;8.47;;;5.10;;
6177;SDS011;3122;48.208;11.174;2022-10-26T00:54:51;4.97;;;4.30;;
6177;SDS011;3122;48.208;11.174;2022-10-26T00:59:53;6.23;;;4.80;;
6177;SDS011;3122;48.208;11.174;2022-10-26T01:04:57;8.90;;;5.00;;
6177;SDS011;3122;48.208;11.174;2022-10-26T01:09:58;6.20;;;4.80;;
6177;SDS011;3122;48.208;11.174;2022-10-26T01:15:00;6.87;;;4.83;;
6177;SDS011;3122;48.208;11.174;2022-10-26T01:25:40;4.90;;;4.40;;
6177;SDS011;3122;48.208;11.174;2022-10-26T01:30:44;5.13;;;4.50;;
6177;SDS011;3122;48.208;11.174;2022-10-26T01:46:35;8.60;;;5.03;;
6177;SDS011;3122;48.208;11.174;2022-10-26T01:51:39;7.03;;;5.10;;
6177;SDS011;3122;48.208;11.174;2022-10-26T01:56:43;7.23;;;5.80;;
6177;SDS011;3122;48.208;11.174;2022-10-26T02:07:00;5.97;;;4.70;;
6177;SDS011;3122;48.208;11.174;2022-10-26T02:12:13;6.70;;;4.93;;
6177;SDS011;3122;48.208;11.174;2022-10-26T02:22:22;6.20;;;4.27;;
6177;SDS011;3122;48.208;11.174;2022-10-26T02:27:26;4.97;;;4.47;;
6177;SDS011;3122;48.208;11.174;2022-10-26T02:32:33;5.63;;;5.00;;
6177;SDS011;3122;48.208;11.174;2022-10-26T02:37:36;5.20;;;4.53;;
6177;SDS011;3122;48.208;11.174;2022-10-26T02:42:38;4.70;;;4.00;;
6177;SDS011;3122;48.208;11.174;2022-10-26T02:47:43;8.37;;;4.20;;
6177;SDS011;3122;48.208;11.174;2022-10-26T02:57:50;5.10;;;4.03;;
6177;SDS011;3122;48.208;11.174;2022-10-26T03:02:54;4.90;;;4.47;;
6177;SDS011;3122;48.208;11.174;2022-10-26T03:07:57;5.37;;;3.90;;
6177;SDS011;3122;48.208;11.174;2022-10-26T03:12:59;5.70;;;4.17;;
6177;SDS011;3122;48.208;11.174;2022-10-26T03:17:59;5.13;;;4.23;;
6177;SDS011;3122;48.208;11.174;2022-10-26T03:23:00;7.10;;;4.23;;
6177;SDS011;3122;48.208;11.174;2022-10-26T03:28:01;4.67;;;4.13;;
6177;SDS011;3122;48.208;11.174;2022-10-26T03:33:03;7.37;;;4.20;;
6177;SDS011;3122;48.208;11.174;2022-10-26T03:38:03;4.70;;;3.87;;
6177;SDS011;3122;48.208;11.174;2022-10-26T03:43:04;6.00;;;4.20;;
6177;SDS011;3122;48.208;11.174;2022-10-26T03:48:04;4.77;;;4.20;;
6177;SDS011;3122;48.208;11.174;2022-10-26T03:53:05;4.20;;;3.80;;
6177;SDS011;3122;48.208;11.174;2022-10-26T03:58:06;4.90;;;4.40;;
6177;SDS011;3122;48.208;11.174;2022-10-26T04:03:07;5.20;;;3.97;;
6177;SDS011;3122;48.208;11.174;2022-10-26T04:08:07;6.47;;;5.00;;
6177;SDS011;3122;48.208;11.174;2022-10-26T04:13:09;7.93;;;4.53;;
6177;SDS011;3122;48.208;11.174;2022-10-26T04:18:10;4.80;;;4.30;;
6177;SDS011;3122;48.208;11.174;2022-10-26T04:23:14;5.70;;;5.10;;
6177;SDS011;3122;48.208;11.174;2022-10-26T04:28:16;7.63;;;6.17;;
6177;SDS011;3122;48.208;11.174;2022-10-26T04:33:16;11.67;;;6.77;;
6177;SDS011;3122;48.208;11.174;2022-10-26T04:38:17;7.10;;;6.40;;
6177;SDS011;3122;48.208;11.174;2022-10-26T04:43:17;13.17;;;5.30;;
6177;SDS011;3122;48.208;11.174;2022-10-26T04:48:18;7.50;;;6.10;;
6177;SDS011;3122;48.208;11.174;2022-10-26T04:53:18;13.80;;;5.80;;
6177;SDS011;3122;48.208;11.174;2022-10-26T04:58:19;12.00;;;6.27;;
6177;SDS011;3122;48.208;11.174;2022-10-26T05:03:19;6.33;;;4.43;;
6177;SDS011;3122;48.208;11.174;2022-10-26T05:08:20;5.77;;;4.13;;
6177;SDS011;3122;48.208;11.174;2022-10-26T05:13:21;4.37;;;3.60;;
6177;SDS011;3122;48.208;11.174;2022-10-26T05:18:21;5.17;;;3.63;;
6177;SDS011;3122;48.208;11.174;2022-10-26T05:23:22;6.53;;;4.13;;
6177;SDS011;3122;48.208;11.174;2022-10-26T05:28:22;6.10;;;4.10;;
6177;SDS011;3122;48.208;11.174;2022-10-26T05:33:23;4.53;;;4.00;;
6177;SDS011;3122;48.208;11.174;2022-10-26T05:38:24;3.57;;;3.30;;
6177;SDS011;3122;48.208;11.174;2022-10-26T05:43:24;3.83;;;3.53;;
6177;SDS011;3122;48.208;11.174;2022-10-26T05:48:26;3.50;;;3.20;;
6177;SDS011;3122;48.208;11.174;2022-10-26T05:53:26;5.03;;;3.57;;
6177;SDS011;3122;48.208;11.174;2022-10-26T05:58:27;3.93;;;2.90;;
6177;SDS011;3122;48.208;11.174;2022-10-26T06:03:34;5.80;;;3.23;;
6177;SDS011;3122;48.208;11.174;2022-10-26T06:08:37;2.90;;;2.70;;
6177;SDS011;3122;48.208;11.174;2022-10-26T06:13:38;3.40;;;3.13;;
6177;SDS011;3122;48.208;11.174;2022-10-26T06:18:46;3.30;;;3.00;;
6177;SDS011;3122;48.208;11.174;2022-10-26T06:24:15;9.20;;;6.93;;
6177;SDS011;3122;48.208;11.174;2022-10-26T06:35:10;21.80;;;12.57;;
6177;SDS011;3122;48.208;11.174;2022-10-26T06:40:18;17.80;;;12.57;;
6177;SDS011;3122;48.208;11.174;2022-10-26T06:45:19;20.80;;;14.10;;
6177;SDS011;3122;48.208;11.174;2022-10-26T06:50:28;9.70;;;6.53;;
6177;SDS011;3122;48.208;11.174;2022-10-26T06:55:41;11.20;;;7.27;;
6177;SDS011;3122;48.208;11.174;2022-10-26T07:00:49;3.80;;;3.00;;
6177;SDS011;3122;48.208;11.174;2022-10-26T07:05:52;3.50;;;2.90;;
6177;SDS011;3122;48.208;11.174;2022-10-26T07:10:52;5.23;;;3.90;;
6177;SDS011;3122;48.208;11.174;2022-10-26T07:15:53;10.47;;;6.97;;
6177;SDS011;3122;48.208;11.174;2022-10-26T07:20:54;4.30;;;3.37;;
6177;SDS011;3122;48.208;11.174;2022-10-26T07:25:54;4.17;;;2.50;;
6177;SDS011;3122;48.208;11.174;2022-10-26T07:30:57;4.17;;;2.90;;
6177;SDS011;3122;48.208;11.174;2022-10-26T07:35:58;6.90;;;3.40;;
6177;SDS011;3122;48.208;11.174;2022-10-26T07:41:00;6.93;;;3.07;;
6177;SDS011;3122;48.208;11.174;2022-10-26T07:46:01;36.13;;;12.03;;
6177;SDS011;3122;48.208;11.174;2022-10-26T07:51:01;14.53;;;5.80;;
6177;SDS011;3122;48.208;11.174;2022-10-26T07:56:02;6.07;;;2.70;;
6177;SDS011;3122;48.208;11.174;2022-10-26T08:01:10;3.23;;;2.93;;
6177;SDS011;3122;48.208;11.174;2022-10-26T08:06:13;6.80;;;2.83;;
6177;SDS011;3122;48.208;11.174;2022-10-26T08:11:14;6.97;;;2.77;;
6177;SDS011;3122;48.208;11.174;2022-10-26T08:16:15;3.93;;;2.80;;
6177;SDS011;3122;48.208;11.174;2022-10-26T08:21:16;24.13;;;8.67;;
6177;SDS011;3122;48.208;11.174;2022-10-26T08:26:17;3.43;;;2.00;;
6177;SDS011;3122;48.208;11.174;2022-10-26T08:31:19;4.40;;;2.00;;
6177;SDS011;3122;48.208;11.174;2022-10-26T08:36:22;6.30;;;1.83;;
6177;SDS011;3122;48.208;11.174;2022-10-26T08:41:31;4.97;;;1.90;;
6177;SDS011;3122;48.208;11.174;2022-10-26T08:46:39;2.00;;;1.60;;
6177;SDS011;3122;48.208;11.174;2022-10-26T08:51:44;2.73;;;1.60;;
6177;SDS011;3122;48.208;11.174;2022-10-26T08:56:46;2.50;;;1.60;;
6177;SDS011;3122;48.208;11.174;2022-10-26T09:01:51;2.20;;;1.90;;
6177;SDS011;3122;48.208;11.174;2022-10-26T09:07:02;4.67;;;1.70;;
6177;SDS011;3122;48.208;11.174;2022-10-26T09:28:09;2.07;;;1.87;;
6177;SDS011;3122;48.208;11.174;2022-10-26T09:33:18;2.00;;;1.80;;
6177;SDS011;3122;48.208;11.174;2022-10-26T09:38:27;4.13;;;1.90;;
6177;SDS011;3122;48.208;11.174;2022-10-26T09:43:46;3.30;;;1.80;;
6177;SDS011;3122;48.208;11.174;2022-10-26T09:48:58;1.97;;;1.67;;
6177;SDS011;3122;48.208;11.174;2022-10-26T09:54:07;6.50;;;2.20;;
6177;SDS011;3122;48.208;11.174;2022-10-26T09:59:19;4.13;;;2.80;;
6177;SDS011;3122;48.208;11.174;2022-10-26T10:04:22;4.20;;;1.83;;
6177;SDS011;3122;48.208;11.174;2022-10-26T10:09:23;4.17;;;1.67;;
6177;SDS011;3122;48.208;11.174;2022-10-26T10:19:34;6.07;;;2.20;;
6177;SDS011;3122;48.208;11.174;2022-10-26T10:24:36;7.23;;;1.70;;
6177;SDS011;3122;48.208;11.174;2022-10-26T10:29:44;2.33;;;1.80;;
6177;SDS011;3122;48.208;11.174;2022-10-26T10:34:50;3.20;;;2.10;;
6177;SDS011;3122;48.208;11.174;2022-10-26T10:39:59;2.60;;;1.60;;
6177;SDS011;3122;48.208;11.174;2022-10-26T10:45:02;3.73;;;1.73;;
6177;SDS011;3122;48.208;11.174;2022-10-26T10:55:17;3.27;;;1.97;;
6177;SDS011;3122;48.208;11.174;2022-10-26T11:00:20;6.13;;;2.07;;
6177;SDS011;3122;48.208;11.174;2022-10-26T11:10:59;6.17;;;2.50;;
6177;SDS011;3122;48.208;11.174;2022-10-26T11:16:06;6.03;;;2.90;;
6177;SDS011;3122;48.208;11.174;2022-10-26T11:21:21;5.87;;;2.40;;
6177;SDS011;3122;48.208;11.174;2022-10-26T11:26:35;6.17;;;2.37;;
6177;SDS011;3122;48.208;11.174;2022-10-26T11:32:31;9.20;;;2.53;;
6177;SDS011;3122;48.208;11.174;2022-10-26T11:42:37;11.40;;;2.37;;
6177;SDS011;3122;48.208;11.174;2022-10-26T11:47:54;7.63;;;2.53;;
6177;SDS011;3122;48.208;11.174;2022-10-26T11:53:03;5.57;;;2.40;;
6177;SDS011;3122;48.208;11.174;2022-10-26T11:58:15;3.93;;;2.40;;
6177;SDS011;3122;48.208;11.174;2022-10-26T12:03:22;7.33;;;2.53;;
6177;SDS011;3122;48.208;11.174;2022-10-26T12:19:50;6.67;;;2.17;;
6177;SDS011;3122;48.208;11.174;2022-10-26T12:30:22;7.60;;;2.50;;
6177;SDS011;3122;48.208;11.174;2022-10-26T12:40:39;6.87;;;2.80;;
6177;SDS011;3122;48.208;11.174;2022-10-26T12:45:41;6.50;;;3.00;;
6177;SDS011;3122;48.208;11.174;2022-10-26T12:50:43;9.57;;;3.70;;
6177;SDS011;3122;48.208;11.174;2022-10-26T12:55:49;14.03;;;4.10;;
6177;SDS011;3122;48.208;11.174;2022-10-26T13:11:36;5.27;;;2.93;;
6177;SDS011;3122;48.208;11.174;2022-10-26T13:16:43;8.90;;;2.20;;
6177;SDS011;3122;48.208;11.174;2022-10-26T13:21:45;4.70;;;2.70;;
6177;SDS011;3122;48.208;11.174;2022-10-26T13:32:07;7.30;;;3.03;;
6177;SDS011;3122;48.208;11.174;2022-10-26T13:42:25;9.40;;;3.00;;
6177;SDS011;3122;48.208;11.174;2022-10-26T13:47:31;8.17;;;2.80;;
6177;SDS011;3122;48.208;11.174;2022-10-26T13:53:04;7.00;;;2.87;;
6177;SDS011;3122;48.208;11.174;2022-10-26T14:03:23;9.97;;;2.60;;
6177;SDS011;3122;48.208;11.174;2022-10-26T14:08:25;5.43;;;2.60;;
6177;SDS011;3122;48.208;11.174;2022-10-26T14:13:26;11.63;;;2.70;;
6177;SDS011;3122;48.208;11.174;2022-10-26T14:18:28;11.70;;;2.50;;
6177;SDS011;3122;48.208;11.174;2022-10-26T14:23:36;8.23;;;2.77;;
6177;SDS011;3122;48.208;11.174;2022-10-26T14:28:49;7.73;;;2.60;;
6177;SDS011;3122;48.208;11.174;2022-10-26T14:33:53;7.53;;;3.17;;
6177;SDS011;3122;48.208;11.174;2022-10-26T14:39:03;5.83;;;2.50;;
6177;SDS011;3122;48.208;11.174;2022-10-26T14:44:16;14.50;;;3.43;;
6177;SDS011;3122;48.208;11.174;2022-10-26T14:49:22;12.30;;;3.40;;
6177;SDS011;3122;48.208;11.174;2022-10-26T14:54:26;8.40;;;3.20;;
6177;SDS011;3122;48.208;11.174;2022-10-26T14:59:28;11.80;;;2.87;;
6177;SDS011;3122;48.208;11.174;2022-10-26T15:04:37;8.10;;;2.97;;
6177;SDS011;3122;48.208;11.174;2022-10-26T15:09:51;8.23;;;3.97;;
6177;SDS011;3122;48.208;11.174;2022-10-26T15:14:52;12.30;;;5.13;;
6177;SDS011;3122;48.208;11.174;2022-10-26T15:19:53;12.00;;;4.20;;
6177;SDS011;3122;48.208;11.174;2022-10-26T15:24:55;11.47;;;4.77;;
6177;SDS011;3122;48.208;11.174;2022-10-26T15:30:09;10.70;;;4.77;;
6177;SDS011;3122;48.208;11.174;2022-10-26T15:35:24;9.17;;;3.70;;
6177;SDS011;3122;48.208;11.174;2022-10-26T15:40:30;13.13;;;5.83;;
6177;SDS011;3122;48.208;11.174;2022-10-26T15:45:31;15.90;;;6.30;;
6177;SDS011;3122;48.208;11.174;2022-10-26T15:50:34;9.20;;;4.30;;
6177;SDS011;3122;48.208;11.174;2022-10-26T15:55:34;8.23;;;4.50;;
6177;SDS011;3122;48.208;11.174;2022-10-26T16:00:35;16.07;;;8.97;;
6177;SDS011;3122;48.208;11.174;2022-10-26T16:05:36;9.93;;;5.00;;
6177;SDS011;3122;48.208;11.174;2022-10-26T16:10:36;10.33;;;3.70;;
6177;SDS011;3122;48.208;11.174;2022-10-26T16:15:37;8.13;;;3.40;;
6177;SDS011;3122;48.208;11.174;2022-10-26T16:20:38;7.83;;;3.70;;
6177;SDS011;3122;48.208;11.174;2022-10-26T16:25:40;6.27;;;4.70;;
6177;SDS011;3122;48.208;11.174;2022-10-26T16:30:43;9.40;;;5.70;;
6177;SDS011;3122;48.208;11.174;2022-10-26T16:35:43;6.43;;;4.53;;
6177;SDS011;3122;48.208;11.174;2022-10-26T16:40:44;31.83;;;17.63;;
6177;SDS011;3122;48.208;11.174;2022-10-26T16:45:44;10.30;;;6.80;;
6177;SDS011;3122;48.208;11.174;2022-10-26T16:50:45;14.17;;;6.97;;
6177;SDS011;3122;48.208;11.174;2022-10-26T16:55:46;11.20;;;5.20;;
6177;SDS011;3122;48.208;11.174;2022-10-26T17:00:46;10.27;;;3.47;;
6177;SDS011;3122;48.208;11.174;2022-10-26T17:05:57;5.47;;;2.43;;
6177;SDS011;3122;48.208;11.174;2022-10-26T17:11:05;13.40;;;4.60;;
6177;SDS011;3122;48.208;11.174;2022-10-26T17:16:11;6.77;;;4.87;;
6177;SDS011;3122;48.208;11.174;2022-10-26T17:21:12;10.03;;;3.67;;
6177;SDS011;3122;48.208;11.174;2022-10-26T17:26:14;6.20;;;3.83;;
6177;SDS011;3122;48.208;11.174;2022-10-26T17:31:14;10.00;;;4.23;;
6177;SDS011;3122;48.208;11.174;2022-10-26T17:36:16;13.77;;;4.43;;
6177;SDS011;3122;48.208;11.174;2022-10-26T17:41:19;6.13;;;4.83;;
6177;SDS011;3122;48.208;11.174;2022-10-26T17:46:22;8.10;;;5.10;;
6177;SDS011;3122;48.208;11.174;2022-10-26T17:51:24;7.53;;;5.83;;
6177;SDS011;3122;48.208;11.174;2022-10-26T17:56:27;23.77;;;6.83;;
6177;SDS011;3122;48.208;11.174;2022-10-26T18:01:29;9.30;;;6.97;;
6177;SDS011;3122;48.208;11.174;2022-10-26T18:06:30;14.73;;;7.50;;
6177;SDS011;3122;48.208;11.174;2022-10-26T18:11:31;17.93;;;7.40;;
6177;SDS011;3122;48.208;11.174;2022-10-26T18:16:31;10.40;;;6.30;;
6177;SDS011;3122;48.208;11.174;2022-10-26T18:21:33;14.87;;;6.90;;
6177;SDS011;3122;48.208;11.174;2022-10-26T18:26:36;12.70;;;7.13;;
6177;SDS011;3122;48.208;11.174;2022-10-26T18:31:37;9.30;;;5.30;;
6177;SDS011;3122;48.208;11.174;2022-10-26T18:36:37;11.07;;;7.20;;
6177;SDS011;3122;48.208;11.174;2022-10-26T18:41:38;13.83;;;8.17;;
6177;SDS011;3122;48.208;11.174;2022-10-26T18:46:38;18.10;;;8.80;;
6177;SDS011;3122;48.208;11.174;2022-10-26T18:51:41;13.53;;;7.00;;
6177;SDS011;3122;48.208;11.174;2022-10-26T18:56:42;14.00;;;6.97;;
6177;SDS011;3122;48.208;11.174;2022-10-26T19:01:42;14.63;;;7.63;;
6177;SDS011;3122;48.208;11.174;2022-10-26T19:06:45;11.77;;;7.70;;
6177;SDS011;3122;48.208;11.174;2022-10-26T19:11:46;14.17;;;8.27;;
6177;SDS011;3122;48.208;11.174;2022-10-26T19:16:49;15.67;;;7.77;;
6177;SDS011;3122;48.208;11.174;2022-10-26T19:21:50;16.20;;;8.40;;
6177;SDS011;3122;48.208;11.174;2022-10-26T19:26:51;14.43;;;8.50;;
6177;SDS011;3122;48.208;11.174;2022-10-26T19:31:53;18.23;;;9.67;;
6177;SDS011;3122;48.208;11.174;2022-10-26T19:36:53;19.00;;;9.77;;
6177;SDS011;3122;48.208;11.174;2022-10-26T19:41:54;15.27;;;10.90;;
6177;SDS011;3122;48.208;11.174;2022-10-26T19:46:54;15.50;;;10.00;;
6177;SDS011;3122;48.208;11.174;2022-10-26T19:51:55;16.87;;;10.17;;
6177;SDS011;3122;48.208;11.174;2022-10-26T19:56:56;15.47;;;9.63;;
6177;SDS011;3122;48.208;11.174;2022-10-26T20:01:57;19.43;;;10.90;;
6177;SDS011;3122;48.208;11.174;2022-10-26T20:06:59;15.90;;;9.83;;
6177;SDS011;3122;48.208;11.174;2022-10-26T20:11:59;17.77;;;10.60;;
6177;SDS011;3122;48.208;11.174;2022-10-26T20:17:00;14.37;;;9.67;;
6177;SDS011;3122;48.208;11.174;2022-10-26T20:22:01;14.23;;;9.77;;
6177;SDS011;3122;48.208;11.174;2022-10-26T20:27:01;17.17;;;11.00;;
6177;SDS011;3122;48.208;11.174;2022-10-26T20:32:02;15.17;;;9.57;;
6177;SDS011;3122;48.208;11.174;2022-10-26T20:37:03;18.87;;;11.50;;
6177;SDS011;3122;48.208;11.174;2022-10-26T20:42:04;16.37;;;9.63;;
6177;SDS011;3122;48.208;11.174;2022-10-26T20:47:05;10.07;;;7.57;;
6177;SDS011;3122;48.208;11.174;2022-10-26T20:52:09;10.80;;;7.50;;
6177;SDS011;3122;48.208;11.174;2022-10-26T20:57:14;17.67;;;9.10;;
6177;SDS011;3122;48.208;11.174;2022-10-26T21:02:18;12.37;;;7.50;;
6177;SDS011;3122;48.208;11.174;2022-10-26T21:07:21;14.40;;;7.90;;
6177;SDS011;3122;48.208;11.174;2022-10-26T21:12:21;14.33;;;9.80;;
6177;SDS011;3122;48.208;11.174;2022-10-26T21:17:22;14.57;;;8.73;;
6177;SDS011;3122;48.208;11.174;2022-10-26T21:22:22;12.27;;;8.47;;
6177;SDS011;3122;48.208;11.174;2022-10-26T21:27:23;12.07;;;6.60;;
6177;SDS011;3122;48.208;11.174;2022-10-26T21:32:24;15.20;;;8.60;;
6177;SDS011;3122;48.208;11.174;2022-10-26T21:37:25;15.10;;;8.90;;
6177;SDS011;3122;48.208;11.174;2022-10-26T21:42:25;15.10;;;9.50;;
6177;SDS011;3122;48.208;11.174;2022-10-26T21:47:26;12.20;;;7.27;;
6177;SDS011;3122;48.208;11.174;2022-10-26T21:52:26;15.87;;;9.80;;
6177;SDS011;3122;48.208;11.174;2022-10-26T21:57:27;22.00;;;10.60;;
6177;SDS011;3122;48.208;11.174;2022-10-26T22:02:28;17.50;;;9.87;;
6177;SDS011;3122;48.208;11.174;2022-10-26T22:07:28;12.90;;;8.47;;
6177;SDS011;3122;48.208;11.174;2022-10-26T22:12:29;16.30;;;8.17;;
6177;SDS011;3122;48.208;11.174;2022-10-26T22:17:29;11.77;;;8.03;;
6177;SDS011;3122;48.208;11.174;2022-10-26T22:22:30;12.73;;;6.47;;
6177;SDS011;3122;48.208;11.174;2022-10-26T22:27:31;9.77;;;6.03;;
6177;SDS011;3122;48.208;11.174;2022-10-26T22:32:31;16.37;;;7.40;;
6177;SDS011;3122;48.208;11.174;2022-10-26T22:37:33;11.47;;;6.90;;
6177;SDS011;3122;48.208;11.174;2022-10-26T22:42:34;13.03;;;5.93;;
6177;SDS011;3122;48.208;11.174;2022-10-26T22:47:34;9.10;;;5.27;;
6177;SDS011;3122;48.208;11.174;2022-10-26T22:52:35;10.37;;;5.43;;
6177;SDS011;3122;48.208;11.174;2022-10-26T22:57:35;11.20;;;5.67;;
6177;SDS011;3122;48.208;11.174;2022-10-26T23:02:36;13.33;;;5.83;;
6177;SDS011;3122;48.208;11.174;2022-10-26T23:07:36;12.10;;;5.30;;
6177;SDS011;3122;48.208;11.174;2022-10-26T23:12:37;10.33;;;5.40;;
6177;SDS011;3122;48.208;11.174;2022-10-26T23:17:38;14.37;;;5.13;;
6177;SDS011;3122;48.208;11.174;2022-10-26T23:22:38;11.83;;;4.63;;
6177;SDS011;3122;48.208;11.174;2022-10-26T23:27:39;7.67;;;5.10;;
6177;SDS011;3122;48.208;11.174;2022-10-26T23:32:39;10.80;;;5.50;;
6177;SDS011;3122;48.208;11.174;2022-10-26T23:37:40;7.43;;;4.67;;
6177;SDS011;3122;48.208;11.174;2022-10-26T23:42:40;7.83;;;5.17;;
6177;SDS011;3122;48.208;11.174;2022-10-26T23:47:41;7.90;;;5.33;;
6177;SDS011;3122;48.208;11.174;2022-10-26T23:52:45;6.80;;;5.20;;
6177;SDS011;3122;48.208;11.174;2022-10-26T23:57:49;8.80;;;4.80;;
